Startpagina
METAR-TAF:

METAR-TAF

Vliegvelden :

Lynn Lake, Manitoba, Canada

breedte: 56-52N, lengte: 101-05W, hoogte: 357 m

Actueel weer

Dit bericht is 31 minuten geleden gemaakt, om 09:00 UTC
Wind 7 kt uit het westen
Temperatuur -19°C
Vochtigheid 92%
Druk 1018 hPa
Zicht: 14.5 km
Onbewolkt

METAR: CYYL 050900Z AUTO 28007KT 9SM CLR M19/M20 A3007 RMK SLP219

Tijdstip: 04:31 (09:31 UTC)

Verwachting

Dit bericht is 2 uur en het 53 minuten geleden gemaakt, om 06:38 UTC
Verwachting geldig van 05 om 07 UTC tot 05 om 19 UTC
Wind 5 kt uit het westen
Zicht: 10 km
Onbewolkt

TAF: CYYL 050638Z 0507/0519 28005KT P6SM SKC RMK FCST BASED ON AUTO OBS. NXT FCST BY 051300Z

Waarnemingen en weersverwachtingen van meer dan 4000 vliegvelden (METAR en TAF).

De beschikbare stations zijn de gele en rode punten op de kaart.

Ga met uw muis naar het station om de naam te zien.

Klik dan om waarnemingen en weersverwachtingen te zien.

kaart wijzigen: klik op de groene knoppen met een zwart kruis om in te zoomen, op de groene knop met een streepje om uit te zoomen of op de groene pijlen voor aangrenzende kaarten.


METAR-TAF: